sensor_id;sensor_type;location;lat;lon;timestamp;P1;durP1;ratioP1;P2;durP2;ratioP2
54599;SDS011;40500;51.084;16.958;2023-07-28T00:01:07;5.60;;;1.80;;
54599;SDS011;40500;51.084;16.958;2023-07-28T00:03:41;2.40;;;1.40;;
54599;SDS011;40500;51.084;16.958;2023-07-28T00:06:11;3.80;;;1.70;;
54599;SDS011;40500;51.084;16.958;2023-07-28T00:08:45;1.60;;;1.50;;
54599;SDS011;40500;51.084;16.958;2023-07-28T00:11:19;2.80;;;1.90;;
54599;SDS011;40500;51.084;16.958;2023-07-28T00:13:53;1.50;;;1.40;;
54599;SDS011;40500;51.084;16.958;2023-07-28T00:16:26;3.30;;;1.60;;
54599;SDS011;40500;51.084;16.958;2023-07-28T00:19:07;2.20;;;1.60;;
54599;SDS011;40500;51.084;16.958;2023-07-28T00:21:39;1.90;;;1.70;;
54599;SDS011;40500;51.084;16.958;2023-07-28T00:24:10;3.20;;;1.80;;
54599;SDS011;40500;51.084;16.958;2023-07-28T00:29:21;3.80;;;1.40;;
54599;SDS011;40500;51.084;16.958;2023-07-28T00:31:54;1.60;;;1.50;;
54599;SDS011;40500;51.084;16.958;2023-07-28T00:34:30;2.00;;;1.60;;
54599;SDS011;40500;51.084;16.958;2023-07-28T00:37:03;2.90;;;1.80;;
54599;SDS011;40500;51.084;16.958;2023-07-28T00:39:47;4.90;;;2.10;;
54599;SDS011;40500;51.084;16.958;2023-07-28T00:42:19;3.10;;;2.00;;
54599;SDS011;40500;51.084;16.958;2023-07-28T00:44:51;2.30;;;2.10;;
54599;SDS011;40500;51.084;16.958;2023-07-28T00:47:24;2.00;;;1.80;;
54599;SDS011;40500;51.084;16.958;2023-07-28T00:49:56;2.50;;;2.30;;
54599;SDS011;40500;51.084;16.958;2023-07-28T00:52:27;2.50;;;2.20;;
54599;SDS011;40500;51.084;16.958;2023-07-28T00:54:59;2.90;;;2.50;;
54599;SDS011;40500;51.084;16.958;2023-07-28T00:57:50;3.90;;;2.30;;
54599;SDS011;40500;51.084;16.958;2023-07-28T01:00:24;2.70;;;2.40;;
54599;SDS011;40500;51.084;16.958;2023-07-28T01:02:55;3.20;;;2.60;;
54599;SDS011;40500;51.084;16.958;2023-07-28T01:05:28;4.30;;;3.00;;
54599;SDS011;40500;51.084;16.958;2023-07-28T01:08:19;4.00;;;2.70;;
54599;SDS011;40500;51.084;16.958;2023-07-28T01:11:06;2.90;;;2.70;;
54599;SDS011;40500;51.084;16.958;2023-07-28T01:13:38;3.60;;;3.30;;
54599;SDS011;40500;51.084;16.958;2023-07-28T01:16:13;3.70;;;3.40;;
54599;SDS011;40500;51.084;16.958;2023-07-28T01:18:47;3.70;;;3.20;;
54599;SDS011;40500;51.084;16.958;2023-07-28T01:21:20;4.30;;;3.40;;
54599;SDS011;40500;51.084;16.958;2023-07-28T01:24:01;4.70;;;3.70;;
54599;SDS011;40500;51.084;16.958;2023-07-28T01:26:43;4.80;;;3.70;;
54599;SDS011;40500;51.084;16.958;2023-07-28T01:29:16;4.60;;;3.60;;
54599;SDS011;40500;51.084;16.958;2023-07-28T01:31:49;3.70;;;3.40;;
54599;SDS011;40500;51.084;16.958;2023-07-28T01:34:20;3.90;;;3.60;;
54599;SDS011;40500;51.084;16.958;2023-07-28T01:36:59;4.90;;;3.50;;
54599;SDS011;40500;51.084;16.958;2023-07-28T01:39:32;4.10;;;3.70;;
54599;SDS011;40500;51.084;16.958;2023-07-28T01:42:11;6.10;;;4.10;;
54599;SDS011;40500;51.084;16.958;2023-07-28T01:44:45;8.00;;;4.40;;
54599;SDS011;40500;51.084;16.958;2023-07-28T01:47:16;5.20;;;4.60;;
54599;SDS011;40500;51.084;16.958;2023-07-28T01:49:49;4.50;;;4.10;;
54599;SDS011;40500;51.084;16.958;2023-07-28T01:52:20;4.20;;;3.80;;
54599;SDS011;40500;51.084;16.958;2023-07-28T01:54:51;7.00;;;4.00;;
54599;SDS011;40500;51.084;16.958;2023-07-28T01:57:24;4.00;;;3.40;;
54599;SDS011;40500;51.084;16.958;2023-07-28T01:59:57;4.10;;;3.70;;
54599;SDS011;40500;51.084;16.958;2023-07-28T02:02:40;4.70;;;3.70;;
54599;SDS011;40500;51.084;16.958;2023-07-28T02:05:27;3.80;;;3.50;;
54599;SDS011;40500;51.084;16.958;2023-07-28T02:07:58;5.20;;;3.60;;
54599;SDS011;40500;51.084;16.958;2023-07-28T02:10:28;3.70;;;3.20;;
54599;SDS011;40500;51.084;16.958;2023-07-28T02:13:01;3.90;;;3.40;;
54599;SDS011;40500;51.084;16.958;2023-07-28T02:15:33;4.10;;;3.70;;
54599;SDS011;40500;51.084;16.958;2023-07-28T02:18:08;4.20;;;3.00;;
54599;SDS011;40500;51.084;16.958;2023-07-28T02:20:38;3.50;;;3.20;;
54599;SDS011;40500;51.084;16.958;2023-07-28T02:23:11;4.70;;;3.30;;
54599;SDS011;40500;51.084;16.958;2023-07-28T02:25:41;4.50;;;3.20;;
54599;SDS011;40500;51.084;16.958;2023-07-28T02:28:12;3.40;;;3.10;;
54599;SDS011;40500;51.084;16.958;2023-07-28T02:30:44;3.30;;;3.00;;
54599;SDS011;40500;51.084;16.958;2023-07-28T02:33:15;3.60;;;3.30;;
54599;SDS011;40500;51.084;16.958;2023-07-28T02:35:45;3.70;;;3.30;;
54599;SDS011;40500;51.084;16.958;2023-07-28T02:38:18;4.10;;;3.10;;
54599;SDS011;40500;51.084;16.958;2023-07-28T02:40:49;2.80;;;2.50;;
54599;SDS011;40500;51.084;16.958;2023-07-28T02:43:21;2.50;;;2.30;;
54599;SDS011;40500;51.084;16.958;2023-07-28T02:45:55;4.00;;;3.00;;
54599;SDS011;40500;51.084;16.958;2023-07-28T02:48:32;2.60;;;2.40;;
54599;SDS011;40500;51.084;16.958;2023-07-28T02:51:03;4.00;;;3.10;;
54599;SDS011;40500;51.084;16.958;2023-07-28T02:53:35;3.10;;;2.80;;
54599;SDS011;40500;51.084;16.958;2023-07-28T02:56:07;6.30;;;2.70;;
54599;SDS011;40500;51.084;16.958;2023-07-28T02:58:37;4.90;;;2.60;;
54599;SDS011;40500;51.084;16.958;2023-07-28T03:01:08;2.90;;;2.60;;
54599;SDS011;40500;51.084;16.958;2023-07-28T03:03:41;3.00;;;2.80;;
54599;SDS011;40500;51.084;16.958;2023-07-28T03:06:19;3.10;;;2.70;;
54599;SDS011;40500;51.084;16.958;2023-07-28T03:08:50;2.60;;;2.40;;
54599;SDS011;40500;51.084;16.958;2023-07-28T03:11:34;4.40;;;2.50;;
54599;SDS011;40500;51.084;16.958;2023-07-28T03:14:05;2.90;;;2.20;;
54599;SDS011;40500;51.084;16.958;2023-07-28T03:16:36;2.70;;;2.40;;
54599;SDS011;40500;51.084;16.958;2023-07-28T03:19:07;2.20;;;2.10;;
54599;SDS011;40500;51.084;16.958;2023-07-28T03:21:42;1.70;;;1.60;;
54599;SDS011;40500;51.084;16.958;2023-07-28T03:24:13;1.90;;;1.80;;
54599;SDS011;40500;51.084;16.958;2023-07-28T03:26:46;2.00;;;1.70;;
54599;SDS011;40500;51.084;16.958;2023-07-28T03:29:19;2.00;;;1.70;;
54599;SDS011;40500;51.084;16.958;2023-07-28T03:31:52;4.50;;;1.90;;
54599;SDS011;40500;51.084;16.958;2023-07-28T03:34:28;1.90;;;1.60;;
54599;SDS011;40500;51.084;16.958;2023-07-28T03:36:59;2.30;;;1.80;;
54599;SDS011;40500;51.084;16.958;2023-07-28T03:39:32;2.10;;;1.50;;
54599;SDS011;40500;51.084;16.958;2023-07-28T03:42:03;1.90;;;1.30;;
54599;SDS011;40500;51.084;16.958;2023-07-28T03:44:36;2.00;;;1.60;;
54599;SDS011;40500;51.084;16.958;2023-07-28T03:47:11;1.50;;;1.40;;
54599;SDS011;40500;51.084;16.958;2023-07-28T03:49:44;5.10;;;1.80;;
54599;SDS011;40500;51.084;16.958;2023-07-28T03:52:17;1.50;;;1.40;;
54599;SDS011;40500;51.084;16.958;2023-07-28T03:54:47;1.70;;;1.40;;
54599;SDS011;40500;51.084;16.958;2023-07-28T03:57:19;1.60;;;1.50;;
54599;SDS011;40500;51.084;16.958;2023-07-28T03:59:50;2.90;;;1.30;;
54599;SDS011;40500;51.084;16.958;2023-07-28T04:02:20;2.00;;;1.60;;
54599;SDS011;40500;51.084;16.958;2023-07-28T04:04:55;4.90;;;4.50;;
54599;SDS011;40500;51.084;16.958;2023-07-28T04:07:26;7.90;;;6.50;;
54599;SDS011;40500;51.084;16.958;2023-07-28T04:09:59;6.20;;;5.60;;
54599;SDS011;40500;51.084;16.958;2023-07-28T04:12:29;6.70;;;3.50;;
54599;SDS011;40500;51.084;16.958;2023-07-28T04:14:59;2.10;;;1.80;;
54599;SDS011;40500;51.084;16.958;2023-07-28T04:17:42;2.70;;;2.40;;
54599;SDS011;40500;51.084;16.958;2023-07-28T04:20:14;1.40;;;1.20;;
54599;SDS011;40500;51.084;16.958;2023-07-28T04:22:45;4.20;;;1.20;;
54599;SDS011;40500;51.084;16.958;2023-07-28T04:25:15;1.60;;;1.10;;
54599;SDS011;40500;51.084;16.958;2023-07-28T04:27:53;1.20;;;1.10;;
54599;SDS011;40500;51.084;16.958;2023-07-28T04:30:30;1.00;;;1.00;;
54599;SDS011;40500;51.084;16.958;2023-07-28T04:33:01;1.30;;;1.20;;
54599;SDS011;40500;51.084;16.958;2023-07-28T04:35:36;2.30;;;1.30;;
54599;SDS011;40500;51.084;16.958;2023-07-28T04:38:16;1.10;;;1.00;;
54599;SDS011;40500;51.084;16.958;2023-07-28T04:40:55;1.90;;;0.90;;
54599;SDS011;40500;51.084;16.958;2023-07-28T04:43:42;0.90;;;0.90;;
54599;SDS011;40500;51.084;16.958;2023-07-28T04:46:14;3.60;;;1.00;;
54599;SDS011;40500;51.084;16.958;2023-07-28T04:48:53;2.00;;;1.30;;
54599;SDS011;40500;51.084;16.958;2023-07-28T04:51:47;1.10;;;1.00;;
54599;SDS011;40500;51.084;16.958;2023-07-28T04:54:33;1.00;;;1.00;;
54599;SDS011;40500;51.084;16.958;2023-07-28T04:57:07;0.90;;;0.90;;
54599;SDS011;40500;51.084;16.958;2023-07-28T04:59:41;0.90;;;0.70;;
54599;SDS011;40500;51.084;16.958;2023-07-28T05:02:12;1.20;;;1.10;;
54599;SDS011;40500;51.084;16.958;2023-07-28T05:04:43;1.20;;;0.90;;
54599;SDS011;40500;51.084;16.958;2023-07-28T05:07:14;0.80;;;0.80;;
54599;SDS011;40500;51.084;16.958;2023-07-28T05:09:46;0.80;;;0.80;;
54599;SDS011;40500;51.084;16.958;2023-07-28T05:12:23;2.70;;;1.00;;
54599;SDS011;40500;51.084;16.958;2023-07-28T05:14:56;1.20;;;0.80;;
54599;SDS011;40500;51.084;16.958;2023-07-28T05:17:27;1.10;;;0.90;;
54599;SDS011;40500;51.084;16.958;2023-07-28T05:20:15;0.80;;;0.80;;
54599;SDS011;40500;51.084;16.958;2023-07-28T05:23:17;1.50;;;0.70;;
54599;SDS011;40500;51.084;16.958;2023-07-28T05:25:48;2.40;;;0.80;;
54599;SDS011;40500;51.084;16.958;2023-07-28T05:28:20;2.70;;;0.70;;
54599;SDS011;40500;51.084;16.958;2023-07-28T05:30:53;1.30;;;0.70;;
54599;SDS011;40500;51.084;16.958;2023-07-28T05:33:34;1.20;;;1.10;;
54599;SDS011;40500;51.084;16.958;2023-07-28T05:36:07;2.70;;;0.80;;
54599;SDS011;40500;51.084;16.958;2023-07-28T05:38:38;1.90;;;1.20;;
54599;SDS011;40500;51.084;16.958;2023-07-28T05:41:08;1.80;;;1.40;;
54599;SDS011;40500;51.084;16.958;2023-07-28T05:43:39;1.00;;;1.00;;
54599;SDS011;40500;51.084;16.958;2023-07-28T05:46:10;0.80;;;0.80;;
54599;SDS011;40500;51.084;16.958;2023-07-28T05:48:50;0.80;;;0.80;;
54599;SDS011;40500;51.084;16.958;2023-07-28T05:51:22;0.70;;;0.70;;
54599;SDS011;40500;51.084;16.958;2023-07-28T05:54:01;0.80;;;0.60;;
54599;SDS011;40500;51.084;16.958;2023-07-28T05:56:34;0.50;;;0.50;;
54599;SDS011;40500;51.084;16.958;2023-07-28T05:59:05;1.60;;;0.80;;
54599;SDS011;40500;51.084;16.958;2023-07-28T06:01:36;1.00;;;0.70;;
54599;SDS011;40500;51.084;16.958;2023-07-28T06:04:25;0.60;;;0.60;;
54599;SDS011;40500;51.084;16.958;2023-07-28T06:06:58;0.80;;;0.60;;
54599;SDS011;40500;51.084;16.958;2023-07-28T06:09:29;0.50;;;0.50;;
54599;SDS011;40500;51.084;16.958;2023-07-28T06:12:01;0.70;;;0.50;;
54599;SDS011;40500;51.084;16.958;2023-07-28T06:14:34;0.70;;;0.60;;
54599;SDS011;40500;51.084;16.958;2023-07-28T06:17:07;1.90;;;0.60;;
54599;SDS011;40500;51.084;16.958;2023-07-28T06:19:38;1.40;;;0.40;;
54599;SDS011;40500;51.084;16.958;2023-07-28T06:22:09;1.40;;;0.50;;
54599;SDS011;40500;51.084;16.958;2023-07-28T06:24:44;0.50;;;0.50;;
54599;SDS011;40500;51.084;16.958;2023-07-28T06:27:14;0.80;;;0.60;;
54599;SDS011;40500;51.084;16.958;2023-07-28T06:29:47;0.90;;;0.60;;
54599;SDS011;40500;51.084;16.958;2023-07-28T06:32:18;0.70;;;0.50;;
54599;SDS011;40500;51.084;16.958;2023-07-28T06:34:54;0.50;;;0.50;;
54599;SDS011;40500;51.084;16.958;2023-07-28T06:37:33;0.30;;;0.30;;
54599;SDS011;40500;51.084;16.958;2023-07-28T06:40:06;4.80;;;0.80;;
54599;SDS011;40500;51.084;16.958;2023-07-28T06:42:38;19.00;;;1.30;;
54599;SDS011;40500;51.084;16.958;2023-07-28T06:45:11;5.50;;;1.20;;
54599;SDS011;40500;51.084;16.958;2023-07-28T06:47:44;2.00;;;0.60;;
54599;SDS011;40500;51.084;16.958;2023-07-28T06:52:50;2.60;;;0.40;;
54599;SDS011;40500;51.084;16.958;2023-07-28T06:55:23;0.30;;;0.30;;
54599;SDS011;40500;51.084;16.958;2023-07-28T06:57:56;1.20;;;0.30;;
54599;SDS011;40500;51.084;16.958;2023-07-28T07:00:26;0.20;;;0.20;;
54599;SDS011;40500;51.084;16.958;2023-07-28T07:03:01;0.30;;;0.20;;
54599;SDS011;40500;51.084;16.958;2023-07-28T07:05:33;1.10;;;0.50;;
54599;SDS011;40500;51.084;16.958;2023-07-28T07:08:22;0.40;;;0.40;;
54599;SDS011;40500;51.084;16.958;2023-07-28T07:10:59;0.20;;;0.20;;
54599;SDS011;40500;51.084;16.958;2023-07-28T07:13:30;1.40;;;0.40;;
54599;SDS011;40500;51.084;16.958;2023-07-28T07:16:01;1.90;;;0.40;;
54599;SDS011;40500;51.084;16.958;2023-07-28T07:18:32;1.60;;;0.20;;
54599;SDS011;40500;51.084;16.958;2023-07-28T07:21:05;2.90;;;0.30;;
54599;SDS011;40500;51.084;16.958;2023-07-28T07:23:37;1.00;;;0.20;;
54599;SDS011;40500;51.084;16.958;2023-07-28T07:26:25;0.60;;;0.20;;
54599;SDS011;40500;51.084;16.958;2023-07-28T07:28:57;0.40;;;0.40;;
54599;SDS011;40500;51.084;16.958;2023-07-28T07:31:30;0.30;;;0.30;;
54599;SDS011;40500;51.084;16.958;2023-07-28T07:34:02;1.50;;;0.60;;
54599;SDS011;40500;51.084;16.958;2023-07-28T07:36:33;1.60;;;0.40;;
54599;SDS011;40500;51.084;16.958;2023-07-28T07:39:11;3.00;;;0.50;;
54599;SDS011;40500;51.084;16.958;2023-07-28T07:41:46;5.80;;;1.20;;
54599;SDS011;40500;51.084;16.958;2023-07-28T07:44:18;0.40;;;0.40;;
54599;SDS011;40500;51.084;16.958;2023-07-28T07:47:10;6.40;;;1.00;;
54599;SDS011;40500;51.084;16.958;2023-07-28T07:49:54;3.10;;;0.70;;
54599;SDS011;40500;51.084;16.958;2023-07-28T07:52:36;3.40;;;0.40;;
54599;SDS011;40500;51.084;16.958;2023-07-28T07:55:10;5.70;;;0.90;;
54599;SDS011;40500;51.084;16.958;2023-07-28T07:57:41;3.30;;;0.30;;
54599;SDS011;40500;51.084;16.958;2023-07-28T08:00:20;5.00;;;1.00;;
54599;SDS011;40500;51.084;16.958;2023-07-28T08:02:51;7.90;;;1.20;;
54599;SDS011;40500;51.084;16.958;2023-07-28T08:05:23;1.40;;;0.40;;
54599;SDS011;40500;51.084;16.958;2023-07-28T08:07:54;0.70;;;0.30;;
54599;SDS011;40500;51.084;16.958;2023-07-28T08:10:25;0.20;;;0.20;;
54599;SDS011;40500;51.084;16.958;2023-07-28T08:12:57;0.90;;;0.50;;
54599;SDS011;40500;51.084;16.958;2023-07-28T08:15:31;1.00;;;0.30;;
54599;SDS011;40500;51.084;16.958;2023-07-28T08:18:02;1.20;;;0.30;;
54599;SDS011;40500;51.084;16.958;2023-07-28T08:20:34;0.50;;;0.40;;
54599;SDS011;40500;51.084;16.958;2023-07-28T08:23:05;0.50;;;0.40;;
54599;SDS011;40500;51.084;16.958;2023-07-28T08:25:41;6.80;;;0.70;;
54599;SDS011;40500;51.084;16.958;2023-07-28T08:28:12;1.40;;;0.50;;
54599;SDS011;40500;51.084;16.958;2023-07-28T08:30:55;1.40;;;0.40;;
54599;SDS011;40500;51.084;16.958;2023-07-28T08:33:27;0.60;;;0.40;;
54599;SDS011;40500;51.084;16.958;2023-07-28T08:36:00;0.30;;;0.30;;
54599;SDS011;40500;51.084;16.958;2023-07-28T08:38:32;0.80;;;0.40;;
54599;SDS011;40500;51.084;16.958;2023-07-28T08:41:03;0.50;;;0.50;;
54599;SDS011;40500;51.084;16.958;2023-07-28T08:43:52;1.00;;;0.60;;
54599;SDS011;40500;51.084;16.958;2023-07-28T08:46:40;0.40;;;0.40;;
54599;SDS011;40500;51.084;16.958;2023-07-28T08:49:11;1.20;;;0.60;;
54599;SDS011;40500;51.084;16.958;2023-07-28T08:51:42;0.50;;;0.50;;
54599;SDS011;40500;51.084;16.958;2023-07-28T08:54:28;2.50;;;0.40;;
54599;SDS011;40500;51.084;16.958;2023-07-28T08:56:58;1.60;;;0.60;;
54599;SDS011;40500;51.084;16.958;2023-07-28T08:59:31;0.60;;;0.60;;
54599;SDS011;40500;51.084;16.958;2023-07-28T09:02:08;3.60;;;0.50;;
54599;SDS011;40500;51.084;16.958;2023-07-28T09:04:42;0.90;;;0.60;;
54599;SDS011;40500;51.084;16.958;2023-07-28T09:07:40;0.70;;;0.50;;
54599;SDS011;40500;51.084;16.958;2023-07-28T09:10:53;0.60;;;0.60;;
54599;SDS011;40500;51.084;16.958;2023-07-28T09:13:27;0.60;;;0.60;;
54599;SDS011;40500;51.084;16.958;2023-07-28T09:16:11;0.40;;;0.40;;
54599;SDS011;40500;51.084;16.958;2023-07-28T09:19:05;0.80;;;0.50;;
54599;SDS011;40500;51.084;16.958;2023-07-28T09:21:43;1.30;;;0.50;;
54599;SDS011;40500;51.084;16.958;2023-07-28T09:24:16;0.60;;;0.50;;
54599;SDS011;40500;51.084;16.958;2023-07-28T09:26:47;0.70;;;0.70;;
54599;SDS011;40500;51.084;16.958;2023-07-28T09:29:24;1.00;;;0.60;;
54599;SDS011;40500;51.084;16.958;2023-07-28T09:32:05;3.50;;;0.70;;
54599;SDS011;40500;51.084;16.958;2023-07-28T09:34:59;0.70;;;0.70;;
54599;SDS011;40500;51.084;16.958;2023-07-28T09:37:45;0.70;;;0.70;;
54599;SDS011;40500;51.084;16.958;2023-07-28T09:40:18;0.90;;;0.80;;
54599;SDS011;40500;51.084;16.958;2023-07-28T09:42:52;1.40;;;0.50;;
54599;SDS011;40500;51.084;16.958;2023-07-28T09:45:24;0.50;;;0.50;;
54599;SDS011;40500;51.084;16.958;2023-07-28T09:48:05;3.10;;;0.80;;
54599;SDS011;40500;51.084;16.958;2023-07-28T09:50:41;4.40;;;0.80;;
54599;SDS011;40500;51.084;16.958;2023-07-28T09:53:14;0.60;;;0.60;;
54599;SDS011;40500;51.084;16.958;2023-07-28T09:55:46;1.10;;;0.90;;
54599;SDS011;40500;51.084;16.958;2023-07-28T09:58:18;0.80;;;0.80;;
54599;SDS011;40500;51.084;16.958;2023-07-28T10:00:53;1.40;;;0.70;;
54599;SDS011;40500;51.084;16.958;2023-07-28T10:03:24;1.40;;;1.30;;
54599;SDS011;40500;51.084;16.958;2023-07-28T10:05:55;2.90;;;0.70;;
54599;SDS011;40500;51.084;16.958;2023-07-28T10:08:26;0.80;;;0.80;;
54599;SDS011;40500;51.084;16.958;2023-07-28T10:10:58;2.30;;;0.70;;
54599;SDS011;40500;51.084;16.958;2023-07-28T10:13:35;0.70;;;0.70;;
54599;SDS011;40500;51.084;16.958;2023-07-28T10:16:11;2.60;;;0.60;;
54599;SDS011;40500;51.084;16.958;2023-07-28T10:18:42;0.60;;;0.60;;
54599;SDS011;40500;51.084;16.958;2023-07-28T10:21:26;2.10;;;0.90;;
54599;SDS011;40500;51.084;16.958;2023-07-28T10:24:00;0.80;;;0.80;;
54599;SDS011;40500;51.084;16.958;2023-07-28T10:26:33;0.70;;;0.70;;
54599;SDS011;40500;51.084;16.958;2023-07-28T10:29:09;1.00;;;0.90;;
54599;SDS011;40500;51.084;16.958;2023-07-28T10:31:52;1.50;;;0.70;;
54599;SDS011;40500;51.084;16.958;2023-07-28T10:34:25;0.40;;;0.40;;
54599;SDS011;40500;51.084;16.958;2023-07-28T10:36:57;1.40;;;0.60;;
54599;SDS011;40500;51.084;16.958;2023-07-28T10:39:29;0.60;;;0.60;;
54599;SDS011;40500;51.084;16.958;2023-07-28T10:42:07;0.60;;;0.60;;
54599;SDS011;40500;51.084;16.958;2023-07-28T10:44:38;2.50;;;0.60;;
54599;SDS011;40500;51.084;16.958;2023-07-28T10:47:09;1.40;;;0.60;;
54599;SDS011;40500;51.084;16.958;2023-07-28T10:49:42;1.90;;;0.70;;
54599;SDS011;40500;51.084;16.958;2023-07-28T10:52:17;1.80;;;0.70;;
54599;SDS011;40500;51.084;16.958;2023-07-28T10:54:48;0.60;;;0.50;;
54599;SDS011;40500;51.084;16.958;2023-07-28T10:57:18;0.50;;;0.50;;
54599;SDS011;40500;51.084;16.958;2023-07-28T10:59:48;0.60;;;0.60;;
54599;SDS011;40500;51.084;16.958;2023-07-28T11:02:20;1.10;;;0.60;;
54599;SDS011;40500;51.084;16.958;2023-07-28T11:04:51;0.60;;;0.60;;
54599;SDS011;40500;51.084;16.958;2023-07-28T11:07:22;1.20;;;0.80;;
54599;SDS011;40500;51.084;16.958;2023-07-28T11:09:55;0.70;;;0.70;;
54599;SDS011;40500;51.084;16.958;2023-07-28T11:12:28;1.20;;;0.60;;
54599;SDS011;40500;51.084;16.958;2023-07-28T11:14:58;0.40;;;0.40;;
54599;SDS011;40500;51.084;16.958;2023-07-28T11:17:29;0.50;;;0.50;;
54599;SDS011;40500;51.084;16.958;2023-07-28T11:19:59;0.60;;;0.60;;
54599;SDS011;40500;51.084;16.958;2023-07-28T11:22:31;0.50;;;0.50;;
54599;SDS011;40500;51.084;16.958;2023-07-28T11:25:07;1.60;;;0.60;;
54599;SDS011;40500;51.084;16.958;2023-07-28T11:27:47;1.10;;;0.60;;
54599;SDS011;40500;51.084;16.958;2023-07-28T11:30:19;1.10;;;0.70;;
54599;SDS011;40500;51.084;16.958;2023-07-28T11:32:51;0.90;;;0.60;;
54599;SDS011;40500;51.084;16.958;2023-07-28T11:35:22;1.50;;;0.50;;
54599;SDS011;40500;51.084;16.958;2023-07-28T11:37:53;0.50;;;0.50;;
54599;SDS011;40500;51.084;16.958;2023-07-28T11:40:24;2.10;;;0.70;;
54599;SDS011;40500;51.084;16.958;2023-07-28T11:42:56;0.90;;;0.50;;
54599;SDS011;40500;51.084;16.958;2023-07-28T11:45:27;1.70;;;0.70;;
54599;SDS011;40500;51.084;16.958;2023-07-28T11:47:59;0.80;;;0.70;;
54599;SDS011;40500;51.084;16.958;2023-07-28T11:50:34;0.90;;;0.90;;
54599;SDS011;40500;51.084;16.958;2023-07-28T11:53:06;1.00;;;0.60;;
54599;SDS011;40500;51.084;16.958;2023-07-28T11:55:39;1.20;;;0.70;;
54599;SDS011;40500;51.084;16.958;2023-07-28T11:58:09;0.70;;;0.70;;
54599;SDS011;40500;51.084;16.958;2023-07-28T12:00:44;1.00;;;0.60;;
54599;SDS011;40500;51.084;16.958;2023-07-28T12:03:15;1.60;;;0.40;;
54599;SDS011;40500;51.084;16.958;2023-07-28T12:06:03;0.50;;;0.50;;
54599;SDS011;40500;51.084;16.958;2023-07-28T12:09:05;0.40;;;0.40;;
54599;SDS011;40500;51.084;16.958;2023-07-28T12:11:38;0.90;;;0.40;;
54599;SDS011;40500;51.084;16.958;2023-07-28T12:14:15;0.90;;;0.50;;
54599;SDS011;40500;51.084;16.958;2023-07-28T12:17:02;0.90;;;0.60;;
54599;SDS011;40500;51.084;16.958;2023-07-28T12:19:43;0.40;;;0.40;;
54599;SDS011;40500;51.084;16.958;2023-07-28T12:22:26;0.50;;;0.50;;
54599;SDS011;40500;51.084;16.958;2023-07-28T12:25:00;2.30;;;0.50;;
54599;SDS011;40500;51.084;16.958;2023-07-28T12:27:30;0.60;;;0.30;;
54599;SDS011;40500;51.084;16.958;2023-07-28T12:30:02;0.40;;;0.40;;
54599;SDS011;40500;51.084;16.958;2023-07-28T12:32:42;1.10;;;0.30;;
54599;SDS011;40500;51.084;16.958;2023-07-28T12:35:16;2.70;;;0.50;;
54599;SDS011;40500;51.084;16.958;2023-07-28T12:37:47;2.40;;;0.40;;
54599;SDS011;40500;51.084;16.958;2023-07-28T12:40:20;0.40;;;0.40;;
54599;SDS011;40500;51.084;16.958;2023-07-28T12:42:54;1.90;;;0.30;;
54599;SDS011;40500;51.084;16.958;2023-07-28T12:45:29;2.70;;;0.50;;
54599;SDS011;40500;51.084;16.958;2023-07-28T12:48:02;0.30;;;0.30;;
54599;SDS011;40500;51.084;16.958;2023-07-28T12:50:46;0.40;;;0.30;;
54599;SDS011;40500;51.084;16.958;2023-07-28T12:53:17;1.20;;;0.40;;
54599;SDS011;40500;51.084;16.958;2023-07-28T12:55:50;1.80;;;0.30;;
54599;SDS011;40500;51.084;16.958;2023-07-28T12:58:24;0.60;;;0.30;;
54599;SDS011;40500;51.084;16.958;2023-07-28T13:00:57;0.70;;;0.30;;
54599;SDS011;40500;51.084;16.958;2023-07-28T13:03:30;0.40;;;0.40;;
54599;SDS011;40500;51.084;16.958;2023-07-28T13:09:04;0.80;;;0.40;;
54599;SDS011;40500;51.084;16.958;2023-07-28T13:11:38;0.20;;;0.20;;
54599;SDS011;40500;51.084;16.958;2023-07-28T13:14:11;0.50;;;0.30;;
54599;SDS011;40500;51.084;16.958;2023-07-28T13:16:59;0.20;;;0.20;;
54599;SDS011;40500;51.084;16.958;2023-07-28T13:19:29;0.30;;;0.30;;
54599;SDS011;40500;51.084;16.958;2023-07-28T13:22:00;2.20;;;0.40;;
54599;SDS011;40500;51.084;16.958;2023-07-28T13:24:30;0.20;;;0.20;;
54599;SDS011;40500;51.084;16.958;2023-07-28T13:27:01;0.30;;;0.20;;
54599;SDS011;40500;51.084;16.958;2023-07-28T13:29:32;0.80;;;0.20;;
54599;SDS011;40500;51.084;16.958;2023-07-28T13:32:13;1.40;;;0.20;;
54599;SDS011;40500;51.084;16.958;2023-07-28T13:34:46;2.50;;;0.30;;
54599;SDS011;40500;51.084;16.958;2023-07-28T13:37:16;0.50;;;0.30;;
54599;SDS011;40500;51.084;16.958;2023-07-28T13:39:49;1.20;;;0.30;;
54599;SDS011;40500;51.084;16.958;2023-07-28T13:42:20;0.40;;;0.20;;
54599;SDS011;40500;51.084;16.958;2023-07-28T13:44:50;4.10;;;0.20;;
54599;SDS011;40500;51.084;16.958;2023-07-28T13:47:25;0.20;;;0.10;;
54599;SDS011;40500;51.084;16.958;2023-07-28T13:49:56;0.80;;;0.30;;
54599;SDS011;40500;51.084;16.958;2023-07-28T13:52:27;0.20;;;0.20;;
54599;SDS011;40500;51.084;16.958;2023-07-28T13:54:58;0.80;;;0.20;;
54599;SDS011;40500;51.084;16.958;2023-07-28T13:57:32;1.60;;;0.20;;
54599;SDS011;40500;51.084;16.958;2023-07-28T14:00:02;0.20;;;0.20;;
54599;SDS011;40500;51.084;16.958;2023-07-28T14:02:37;0.50;;;0.20;;
54599;SDS011;40500;51.084;16.958;2023-07-28T14:05:19;2.40;;;0.30;;
54599;SDS011;40500;51.084;16.958;2023-07-28T14:07:50;0.40;;;0.20;;
54599;SDS011;40500;51.084;16.958;2023-07-28T14:10:21;0.30;;;0.20;;
54599;SDS011;40500;51.084;16.958;2023-07-28T14:13:00;1.80;;;0.20;;
54599;SDS011;40500;51.084;16.958;2023-07-28T14:15:30;0.20;;;0.20;;
54599;SDS011;40500;51.084;16.958;2023-07-28T14:18:01;2.20;;;0.40;;
54599;SDS011;40500;51.084;16.958;2023-07-28T14:20:31;2.40;;;0.20;;
54599;SDS011;40500;51.084;16.958;2023-07-28T14:23:02;0.50;;;0.20;;
54599;SDS011;40500;51.084;16.958;2023-07-28T14:25:51;0.20;;;0.20;;
54599;SDS011;40500;51.084;16.958;2023-07-28T14:28:23;0.70;;;0.20;;
54599;SDS011;40500;51.084;16.958;2023-07-28T14:30:54;1.30;;;0.20;;
54599;SDS011;40500;51.084;16.958;2023-07-28T14:33:24;1.80;;;0.20;;
54599;SDS011;40500;51.084;16.958;2023-07-28T14:35:55;0.60;;;0.30;;
54599;SDS011;40500;51.084;16.958;2023-07-28T14:38:25;0.90;;;0.30;;
54599;SDS011;40500;51.084;16.958;2023-07-28T14:40:56;0.30;;;0.30;;
54599;SDS011;40500;51.084;16.958;2023-07-28T14:43:28;0.40;;;0.40;;
54599;SDS011;40500;51.084;16.958;2023-07-28T14:45:59;4.30;;;0.40;;
54599;SDS011;40500;51.084;16.958;2023-07-28T14:48:31;0.30;;;0.20;;
54599;SDS011;40500;51.084;16.958;2023-07-28T14:51:27;0.30;;;0.20;;
54599;SDS011;40500;51.084;16.958;2023-07-28T14:53:58;3.20;;;0.30;;
54599;SDS011;40500;51.084;16.958;2023-07-28T14:56:33;3.30;;;0.30;;
54599;SDS011;40500;51.084;16.958;2023-07-28T14:59:07;0.40;;;0.20;;
54599;SDS011;40500;51.084;16.958;2023-07-28T15:02:04;0.80;;;0.20;;
54599;SDS011;40500;51.084;16.958;2023-07-28T15:04:46;0.20;;;0.20;;
54599;SDS011;40500;51.084;16.958;2023-07-28T15:07:19;0.50;;;0.10;;
54599;SDS011;40500;51.084;16.958;2023-07-28T15:10:00;0.30;;;0.10;;
54599;SDS011;40500;51.084;16.958;2023-07-28T15:12:35;1.60;;;0.10;;
54599;SDS011;40500;51.084;16.958;2023-07-28T15:15:07;0.80;;;0.30;;
54599;SDS011;40500;51.084;16.958;2023-07-28T15:17:38;0.20;;;0.20;;
54599;SDS011;40500;51.084;16.958;2023-07-28T15:20:20;0.80;;;0.20;;
54599;SDS011;40500;51.084;16.958;2023-07-28T15:22:53;0.20;;;0.20;;
54599;SDS011;40500;51.084;16.958;2023-07-28T15:25:26;1.10;;;0.20;;